BarenTS Sea — 9VAP5 — position and weather

sailwx.info

Track history (hours):
 
Tides and Currents Weather Stations Pressure Air Temp Water Temp Dewpoint Dewpoint Depression Visibility Wind Speed Wind Dir Waves Ship Positions

BarenTS Sea

Last reported at 2014-Nov-28 18:33 UTC. Time now 2014-Nov-28 19:20 UTC.
Position N 44°33' E 037°40'.

Length 248 m; draft 12.6 m.

Type: Tanker. MMSI: 563909000.

Date/timePositionNaut miles runAvg speedWind from/ knotsBaromVisibWave heightAir tempDewpointWater temp
2014-Nov-28 18:33N 44°33' E 037°40'5 4.8
2014-Nov-28 17:34N 44°36' E 037°45'0 0.1
2014-Nov-28 16:34N 44°36' E 037°44'0 0.4
2014-Nov-28 15:33N 44°37' E 037°44'3 3.4
2014-Nov-28 14:34N 44°35' E 037°49'4 4.2
2014-Nov-28 13:34N 44°34' E 037°54'0 0.1
2014-Nov-28 12:32N 44°34' E 037°54'0 0.0
2014-Nov-28 11:32N 44°34' E 037°55'0 0.0
2014-Nov-28 10:29N 44°34' E 037°55'0 0.0
2014-Nov-28 09:29N 44°34' E 037°54'0 0.0
2014-Nov-28 07:32N 44°34' E 037°54'0 0.0
2014-Nov-28 06:32N 44°34' E 037°54'0 0.0
2014-Nov-28 05:32N 44°34' E 037°55'0 0.0
2014-Nov-28 04:32N 44°34' E 037°55'0 0.0
2014-Nov-28 03:32N 44°34' E 037°55'0 0.0
2014-Nov-28 02:32N 44°34' E 037°55'0 0.0
2014-Nov-28 01:26N 44°34' E 037°55'0 0.0
2014-Nov-28 00:32N 44°34' E 037°55'0 0.0
2014-Nov-27 23:32N 44°34' E 037°55'0 0.0
2014-Nov-27 22:32N 44°34' E 037°55'0 0.0
2014-Nov-27 21:32N 44°34' E 037°55'0 0.0
2014-Nov-27 20:32N 44°34' E 037°55'0 0.0
2014-Nov-27 19:32N 44°34' E 037°55'0 0.0
2014-Nov-27 18:32N 44°34' E 037°55'0 0.0
2014-Nov-27 17:29N 44°34' E 037°55'0 0.0
2014-Nov-27 16:32N 44°34' E 037°55'0 0.0
2014-Nov-27 15:32N 44°34' E 037°55'0 0.0
2014-Nov-27 14:32N 44°34' E 037°55'0 0.0
2014-Nov-27 13:32N 44°34' E 037°55'0 0.0
2014-Nov-27 12:32N 44°34' E 037°55'0 0.0
2014-Nov-27 11:32N 44°34' E 037°55'0 0.0
2014-Nov-27 10:32N 44°34' E 037°55'0 0.0
2014-Nov-27 09:32N 44°34' E 037°55'0 0.0
2014-Nov-27 08:32N 44°34' E 037°55'1 0.7
2014-Nov-27 07:33N 44°34' E 037°56'4 4.4
2014-Nov-27 06:34N 44°35' E 037°49'4 3.7
2014-Nov-27 05:33N 44°37' E 037°45'0 0.2
2014-Nov-27 04:33N 44°37' E 037°45'3 2.9
2014-Nov-27 03:32N 44°36' E 037°41'  
2014-Nov-24 19:14N 44°19' E 037°27'4 1.9
2014-Nov-24 17:20N 44°22' E 037°31'390 7.8
2014-Nov-22 15:33N 41°34' E 029°29'7 7.6
2014-Nov-22 14:33N 41°28' E 029°23'8 7.5
2014-Nov-22 13:29N 41°22' E 029°17'8 8.1
2014-Nov-22 12:30N 41°15' E 029°11'17 8.6
2014-Nov-22 10:31N 41°00' E 028°60'8 8.2
2014-Nov-22 09:33N 40°53' E 028°56'7 6.5
2014-Nov-22 08:32N 40°47' E 028°54'1 0.9
2014-Nov-22 07:28N 40°46' E 028°55'1 0.9
2014-Nov-22 06:33N 40°47' E 028°55'1 0.9
2014-Nov-22 05:33N 40°47' E 028°55'1 1.0
2014-Nov-22 04:32N 40°48' E 028°55'1 1.0
2014-Nov-22 03:33N 40°49' E 028°55'1 1.0
2014-Nov-22 02:33N 40°50' E 028°55'0 0.0
2014-Nov-22 01:32N 40°50' E 028°55'1 1.3
2014-Nov-22 00:33N 40°51' E 028°54'7 7.2
2014-Nov-21 23:32N 40°50' E 028°44'10 9.3
2014-Nov-21 22:25N 40°49' E 028°31'  
Track history (hours):
 
Tides and Currents Weather Stations Pressure Air Temp Water Temp Dewpoint Dewpoint Depression Visibility Wind Speed Wind Dir Waves Ship Positions

BarenTS Sea

Last reported at 2014-Nov-28 18:33 UTC. Time now 2014-Nov-28 19:20 UTC.
Position N 44°33' E 037°40'.

Length 248 m; draft 12.6 m.

Type: Tanker. MMSI: 563909000.

Date/timePositionNaut miles runAvg speedWind from/ knotsBaromVisibWave heightAir tempDewpointWater temp
2014-Nov-28 18:33N 44°33' E 037°40'5 4.8
2014-Nov-28 17:34N 44°36' E 037°45'0 0.1
2014-Nov-28 16:34N 44°36' E 037°44'0 0.4
2014-Nov-28 15:33N 44°37' E 037°44'3 3.4
2014-Nov-28 14:34N 44°35' E 037°49'4 4.2
2014-Nov-28 13:34N 44°34' E 037°54'0 0.1
2014-Nov-28 12:32N 44°34' E 037°54'0 0.0
2014-Nov-28 11:32N 44°34' E 037°55'0 0.0
2014-Nov-28 10:29N 44°34' E 037°55'0 0.0
2014-Nov-28 09:29N 44°34' E 037°54'0 0.0
2014-Nov-28 07:32N 44°34' E 037°54'0 0.0
2014-Nov-28 06:32N 44°34' E 037°54'0 0.0
2014-Nov-28 05:32N 44°34' E 037°55'0 0.0
2014-Nov-28 04:32N 44°34' E 037°55'0 0.0
2014-Nov-28 03:32N 44°34' E 037°55'0 0.0
2014-Nov-28 02:32N 44°34' E 037°55'0 0.0
2014-Nov-28 01:26N 44°34' E 037°55'0 0.0
2014-Nov-28 00:32N 44°34' E 037°55'0 0.0
2014-Nov-27 23:32N 44°34' E 037°55'0 0.0
2014-Nov-27 22:32N 44°34' E 037°55'0 0.0
2014-Nov-27 21:32N 44°34' E 037°55'0 0.0
2014-Nov-27 20:32N 44°34' E 037°55'0 0.0
2014-Nov-27 19:32N 44°34' E 037°55'0 0.0
2014-Nov-27 18:32N 44°34' E 037°55'0 0.0
2014-Nov-27 17:29N 44°34' E 037°55'0 0.0
2014-Nov-27 16:32N 44°34' E 037°55'0 0.0
2014-Nov-27 15:32N 44°34' E 037°55'0 0.0
2014-Nov-27 14:32N 44°34' E 037°55'0 0.0
2014-Nov-27 13:32N 44°34' E 037°55'0 0.0
2014-Nov-27 12:32N 44°34' E 037°55'0 0.0
2014-Nov-27 11:32N 44°34' E 037°55'0 0.0
2014-Nov-27 10:32N 44°34' E 037°55'0 0.0
2014-Nov-27 09:32N 44°34' E 037°55'0 0.0
2014-Nov-27 08:32N 44°34' E 037°55'1 0.7
2014-Nov-27 07:33N 44°34' E 037°56'4 4.4
2014-Nov-27 06:34N 44°35' E 037°49'4 3.7
2014-Nov-27 05:33N 44°37' E 037°45'0 0.2
2014-Nov-27 04:33N 44°37' E 037°45'3 2.9
2014-Nov-27 03:32N 44°36' E 037°41'  
2014-Nov-24 19:14N 44°19' E 037°27'4 1.9
2014-Nov-24 17:20N 44°22' E 037°31'390 7.8
2014-Nov-22 15:33N 41°34' E 029°29'7 7.6
2014-Nov-22 14:33N 41°28' E 029°23'8 7.5
2014-Nov-22 13:29N 41°22' E 029°17'8 8.1
2014-Nov-22 12:30N 41°15' E 029°11'17 8.6
2014-Nov-22 10:31N 41°00' E 028°60'8 8.2
2014-Nov-22 09:33N 40°53' E 028°56'7 6.5
2014-Nov-22 08:32N 40°47' E 028°54'1 0.9
2014-Nov-22 07:28N 40°46' E 028°55'1 0.9
2014-Nov-22 06:33N 40°47' E 028°55'1 0.9
2014-Nov-22 05:33N 40°47' E 028°55'1 1.0
2014-Nov-22 04:32N 40°48' E 028°55'1 1.0
2014-Nov-22 03:33N 40°49' E 028°55'1 1.0
2014-Nov-22 02:33N 40°50' E 028°55'0 0.0
2014-Nov-22 01:32N 40°50' E 028°55'1 1.3
2014-Nov-22 00:33N 40°51' E 028°54'7 7.2
2014-Nov-21 23:32N 40°50' E 028°44'10 9.3
2014-Nov-21 22:25N 40°49' E 028°31'  

Dump ship's entire track history